CEB818 WSSS-RPLL
Flight info
| Callsign | CEB818 |
|---|---|
| Flight time | 3h 19m |
| Altitude | 32000 |
| Route | TOMAN5B TOMAN L625 LUSMO N884 LULBU/N0465F330 N884 LUBAN LUBAN7R |
| Aircraft | A21N/M-SDE2E3FGHIRWXY/LB1 |
Departure
| Time | 2026-05-04 07:35 |
|---|---|
| Airport | Singapore Changi Airport (WSSS) |
Arrival
| Time | 2026-05-04 10:54 |
|---|---|
| Airport | Ninoy Aquino International Airport (RPLL) |
| Time | Latitude | Longitude | Altitude | Speed | Heading |
|---|---|---|---|---|---|
| 2026-05-04 07:27 | 1.36523 | 103.99080 | 15 ft | 0 kts | 263° |
| 2026-05-04 07:27 | 1.36523 | 103.99085 | 16 ft | 2 kts | 263° |
| 2026-05-04 07:27 | 1.36525 | 103.99100 | 16 ft | 2 kts | 263° |
| 2026-05-04 07:28 | 1.36527 | 103.99115 | 16 ft | 2 kts | 263° |
| 2026-05-04 07:28 | 1.36526 | 103.99130 | 16 ft | 2 kts | 300° |
| 2026-05-04 07:28 | 1.36515 | 103.99141 | 17 ft | 2 kts | 334° |
| 2026-05-04 07:28 | 1.36507 | 103.99144 | 17 ft | 1 kts | 354° |
| 2026-05-04 07:29 | 1.36501 | 103.99144 | 17 ft | 0 kts | 354° |
| 2026-05-04 07:33 | 1.36513 | 103.99562 | 15 ft | 21 kts | 113° |
| 2026-05-04 07:33 | 1.36453 | 103.99703 | 14 ft | 23 kts | 113° |
| 2026-05-04 07:33 | 1.36385 | 103.99851 | 12 ft | 22 kts | 129° |
| 2026-05-04 07:33 | 1.36238 | 103.99890 | 13 ft | 22 kts | 173° |
| 2026-05-04 07:34 | 1.36069 | 103.99844 | 15 ft | 42 kts | 202° |
| 2026-05-04 07:34 | 1.35571 | 103.99635 | 19 ft | 109 kts | 203° |
| 2026-05-04 07:34 | 1.34684 | 103.99259 | 17 ft | 165 kts | 202° |
| 2026-05-04 07:34 | 1.33527 | 103.98780 | 273 ft | 186 kts | 202° |
| 2026-05-04 07:35 | 1.32434 | 103.98326 | 1188 ft | 165 kts | 201° |
| 2026-05-04 07:35 | 1.31379 | 103.97882 | 1710 ft | 170 kts | 202° |
| 2026-05-04 07:35 | 1.30258 | 103.97400 | 2127 ft | 182 kts | 202° |
| 2026-05-04 07:35 | 1.29057 | 103.96928 | 2540 ft | 190 kts | 192° |
| 2026-05-04 07:36 | 1.27739 | 103.97092 | 2732 ft | 197 kts | 146° |
| 2026-05-04 07:36 | 1.26753 | 103.98064 | 2972 ft | 206 kts | 127° |
| 2026-05-04 07:38 | 1.18253 | 104.06982 | 5677 ft | 280 kts | 134° |
| 2026-05-04 07:38 | 1.16854 | 104.08341 | 6292 ft | 283 kts | 134° |
| 2026-05-04 07:38 | 1.15443 | 104.09712 | 6897 ft | 286 kts | 135° |
| 2026-05-04 07:38 | 1.14017 | 104.11097 | 7500 ft | 288 kts | 135° |
| 2026-05-04 07:39 | 1.12579 | 104.12493 | 8087 ft | 291 kts | 135° |
| 2026-05-04 07:39 | 1.11127 | 104.13903 | 8650 ft | 294 kts | 135° |
| 2026-05-04 07:39 | 1.09648 | 104.15337 | 9198 ft | 296 kts | 135° |
| 2026-05-04 07:39 | 1.08336 | 104.16907 | 9716 ft | 297 kts | 115° |
| 2026-05-04 07:40 | 1.07878 | 104.18879 | 10228 ft | 296 kts | 89° |
| 2026-05-04 07:40 | 1.07976 | 104.20955 | 10547 ft | 307 kts | 86° |
| 2026-05-04 07:40 | 1.08091 | 104.23120 | 10786 ft | 320 kts | 86° |
| 2026-05-04 07:40 | 1.08196 | 104.25373 | 11007 ft | 332 kts | 87° |
| 2026-05-04 07:41 | 1.08292 | 104.27716 | 11241 ft | 344 kts | 87° |
| 2026-05-04 07:41 | 1.08384 | 104.30140 | 11561 ft | 351 kts | 87° |
| 2026-05-04 07:41 | 1.08472 | 104.32571 | 12039 ft | 353 kts | 88° |
| 2026-05-04 07:41 | 1.08559 | 104.35015 | 12541 ft | 354 kts | 88° |
| 2026-05-04 07:42 | 1.08646 | 104.37464 | 13035 ft | 355 kts | 88° |
| 2026-05-04 07:42 | 1.08732 | 104.39925 | 13513 ft | 357 kts | 88° |
| 2026-05-04 07:42 | 1.08823 | 104.42403 | 13943 ft | 359 kts | 86° |
| 2026-05-04 07:42 | 1.09311 | 104.44838 | 14296 ft | 363 kts | 69° |
| 2026-05-04 07:43 | 1.10591 | 104.47050 | 14487 ft | 372 kts | 51° |
| 2026-05-04 07:43 | 1.12400 | 104.48911 | 14834 ft | 376 kts | 45° |
| 2026-05-04 07:43 | 1.14276 | 104.50735 | 15250 ft | 378 kts | 45° |
| 2026-05-04 07:43 | 1.16158 | 104.52573 | 15638 ft | 380 kts | 45° |
| 2026-05-04 07:44 | 1.18039 | 104.54428 | 16019 ft | 382 kts | 46° |
| 2026-05-04 07:44 | 1.19928 | 104.56300 | 16373 ft | 384 kts | 46° |
| 2026-05-04 07:44 | 1.21820 | 104.58179 | 16751 ft | 385 kts | 46° |
| 2026-05-04 07:44 | 1.23732 | 104.60078 | 17090 ft | 387 kts | 46° |
| 2026-05-04 07:45 | 1.25643 | 104.61976 | 17465 ft | 388 kts | 46° |
| 2026-05-04 07:45 | 1.27557 | 104.63878 | 17770 ft | 390 kts | 46° |
| 2026-05-04 07:45 | 1.29483 | 104.65790 | 18082 ft | 392 kts | 46° |
| 2026-05-04 07:45 | 1.31404 | 104.67726 | 18399 ft | 393 kts | 49° |
| 2026-05-04 07:46 | 1.32922 | 104.69979 | 18645 ft | 394 kts | 65° |
| 2026-05-04 07:46 | 1.33727 | 104.72579 | 18948 ft | 395 kts | 81° |
| 2026-05-04 07:46 | 1.33898 | 104.75328 | 19263 ft | 396 kts | 88° |
| 2026-05-04 07:46 | 1.33945 | 104.78078 | 19518 ft | 399 kts | 89° |
| 2026-05-04 07:47 | 1.33988 | 104.80842 | 19796 ft | 400 kts | 88° |
| 2026-05-04 07:47 | 1.34042 | 104.83619 | 20065 ft | 402 kts | 88° |
| 2026-05-04 07:47 | 1.34104 | 104.86410 | 20328 ft | 404 kts | 88° |
| 2026-05-04 07:49 | 1.34585 | 105.06272 | 22028 ft | 415 kts | 88° |
| 2026-05-04 07:49 | 1.34654 | 105.09151 | 22249 ft | 417 kts | 88° |
| 2026-05-04 07:49 | 1.34723 | 105.12039 | 22481 ft | 418 kts | 88° |
| 2026-05-04 07:50 | 1.34793 | 105.14957 | 22709 ft | 419 kts | 88° |
| 2026-05-04 07:50 | 1.34862 | 105.17863 | 22922 ft | 421 kts | 88° |
| 2026-05-04 07:50 | 1.34933 | 105.20776 | 23138 ft | 422 kts | 88° |
| 2026-05-04 07:50 | 1.35003 | 105.23699 | 23356 ft | 423 kts | 88° |
| 2026-05-04 07:51 | 1.35073 | 105.26635 | 23553 ft | 425 kts | 88° |
| 2026-05-04 07:51 | 1.35143 | 105.29579 | 23759 ft | 427 kts | 88° |
| 2026-05-04 07:51 | 1.35214 | 105.32534 | 23971 ft | 428 kts | 88° |
| 2026-05-04 07:51 | 1.35285 | 105.35519 | 24172 ft | 429 kts | 88° |
| 2026-05-04 07:52 | 1.35357 | 105.38489 | 24375 ft | 430 kts | 88° |
| 2026-05-04 07:52 | 1.35428 | 105.41465 | 24574 ft | 431 kts | 88° |
| 2026-05-04 07:52 | 1.35499 | 105.44457 | 24750 ft | 433 kts | 88° |
| 2026-05-04 07:52 | 1.35569 | 105.47456 | 24931 ft | 434 kts | 88° |
| 2026-05-04 07:53 | 1.35641 | 105.50467 | 25107 ft | 436 kts | 89° |
| 2026-05-04 07:54 | 1.36145 | 105.71798 | 26309 ft | 444 kts | 89° |
| 2026-05-04 07:55 | 1.36455 | 105.74855 | 26411 ft | 446 kts | 77° |
| 2026-05-04 07:55 | 1.37645 | 105.77729 | 26550 ft | 448 kts | 60° |
| 2026-05-04 07:55 | 1.39612 | 105.80132 | 26715 ft | 451 kts | 44° |
| 2026-05-04 07:55 | 1.42199 | 105.81908 | 26854 ft | 454 kts | 30° |
| 2026-05-04 07:56 | 1.45013 | 105.83349 | 27013 ft | 455 kts | 28° |
| 2026-05-04 07:56 | 1.47843 | 105.84790 | 27132 ft | 457 kts | 28° |
| 2026-05-04 07:56 | 1.50674 | 105.86236 | 27308 ft | 458 kts | 28° |
| 2026-05-04 07:56 | 1.53504 | 105.87689 | 27530 ft | 457 kts | 28° |
| 2026-05-04 07:57 | 1.56347 | 105.89153 | 27761 ft | 456 kts | 29° |
| 2026-05-04 07:57 | 1.59163 | 105.90607 | 27988 ft | 455 kts | 29° |
| 2026-05-04 07:57 | 1.61972 | 105.92060 | 28215 ft | 455 kts | 29° |
| 2026-05-04 07:57 | 1.64777 | 105.93510 | 28440 ft | 454 kts | 29° |
| 2026-05-04 07:58 | 1.67577 | 105.94960 | 28671 ft | 453 kts | 29° |
| 2026-05-04 07:58 | 1.70375 | 105.96408 | 28914 ft | 453 kts | 29° |
| 2026-05-04 07:58 | 1.73173 | 105.97857 | 29156 ft | 452 kts | 29° |
| 2026-05-04 07:58 | 1.75978 | 105.99312 | 29382 ft | 452 kts | 29° |
| 2026-05-04 07:59 | 1.78768 | 106.00757 | 29601 ft | 452 kts | 29° |
| 2026-05-04 07:59 | 1.81554 | 106.02203 | 29827 ft | 452 kts | 29° |
| 2026-05-04 07:59 | 1.84341 | 106.03648 | 30052 ft | 451 kts | 29° |
| 2026-05-04 07:59 | 1.87127 | 106.05092 | 30286 ft | 451 kts | 29° |
| 2026-05-04 08:00 | 1.89916 | 106.06537 | 30523 ft | 451 kts | 29° |
| 2026-05-04 08:00 | 1.92702 | 106.07979 | 30759 ft | 451 kts | 29° |
| 2026-05-04 08:00 | 1.95507 | 106.09425 | 30891 ft | 452 kts | 29° |
| 2026-05-04 08:02 | 2.14950 | 106.19475 | 31792 ft | 446 kts | 29° |
| 2026-05-04 08:02 | 2.20456 | 106.22327 | 31801 ft | 446 kts | 29° |
| 2026-05-04 08:03 | 2.25971 | 106.25180 | 31810 ft | 446 kts | 29° |
| 2026-05-04 08:03 | 2.31485 | 106.28032 | 31813 ft | 447 kts | 29° |
| 2026-05-04 08:04 | 2.37022 | 106.30899 | 31814 ft | 447 kts | 29° |
| 2026-05-04 08:04 | 2.42532 | 106.33752 | 31814 ft | 446 kts | 29° |
| 2026-05-04 08:05 | 2.48037 | 106.36605 | 31814 ft | 446 kts | 29° |
| 2026-05-04 08:05 | 2.53556 | 106.39465 | 31814 ft | 446 kts | 29° |
| 2026-05-04 08:06 | 2.59062 | 106.42315 | 31814 ft | 446 kts | 29° |
| 2026-05-04 08:06 | 2.64576 | 106.45168 | 31814 ft | 446 kts | 29° |
| 2026-05-04 08:08 | 2.86651 | 106.56602 | 31812 ft | 446 kts | 28° |
| 2026-05-04 08:11 | 3.11475 | 106.69440 | 31805 ft | 446 kts | 29° |
| 2026-05-04 08:11 | 3.19743 | 106.73722 | 31800 ft | 446 kts | 29° |
| 2026-05-04 08:12 | 3.25254 | 106.76577 | 31794 ft | 446 kts | 29° |
| 2026-05-04 08:12 | 3.30778 | 106.79441 | 31792 ft | 446 kts | 28° |
| 2026-05-04 08:13 | 3.36282 | 106.82294 | 31792 ft | 445 kts | 28° |
| 2026-05-04 08:13 | 3.41792 | 106.85152 | 31791 ft | 446 kts | 28° |
| 2026-05-04 08:14 | 3.47299 | 106.88006 | 31791 ft | 446 kts | 29° |
| 2026-05-04 08:16 | 3.65600 | 107.04249 | 31791 ft | 441 kts | 52° |
| 2026-05-04 08:16 | 3.69429 | 107.09023 | 31791 ft | 441 kts | 52° |
| 2026-05-04 08:17 | 3.73266 | 107.13797 | 31791 ft | 441 kts | 52° |
| 2026-05-04 08:17 | 3.77103 | 107.18564 | 31791 ft | 441 kts | 52° |
| 2026-05-04 08:19 | 3.92457 | 107.37631 | 31812 ft | 440 kts | 52° |
| 2026-05-04 08:20 | 3.96286 | 107.42389 | 31814 ft | 440 kts | 52° |
| 2026-05-04 08:20 | 4.00115 | 107.47146 | 31814 ft | 440 kts | 52° |
| 2026-05-04 08:21 | 4.03946 | 107.51906 | 31814 ft | 439 kts | 52° |
| 2026-05-04 08:21 | 4.07783 | 107.56675 | 31814 ft | 439 kts | 52° |
| 2026-05-04 08:22 | 4.11609 | 107.61430 | 31814 ft | 439 kts | 52° |
| 2026-05-04 08:24 | 4.26896 | 107.80446 | 31814 ft | 439 kts | 52° |
| 2026-05-04 08:24 | 4.30710 | 107.85189 | 31812 ft | 438 kts | 52° |
| 2026-05-04 08:25 | 4.34537 | 107.89953 | 31812 ft | 438 kts | 52° |
| 2026-05-04 08:25 | 4.38353 | 107.94701 | 31805 ft | 438 kts | 52° |
| 2026-05-04 08:27 | 4.53622 | 108.13720 | 31791 ft | 438 kts | 52° |
| 2026-05-04 08:28 | 4.57433 | 108.18469 | 31793 ft | 438 kts | 52° |
| 2026-05-04 08:28 | 4.61255 | 108.23232 | 31791 ft | 438 kts | 52° |
| 2026-05-04 08:29 | 4.65067 | 108.27986 | 31792 ft | 439 kts | 52° |
| 2026-05-04 08:31 | 4.80390 | 108.46990 | 31794 ft | 437 kts | 52° |
| 2026-05-04 08:33 | 4.95737 | 108.65936 | 31794 ft | 439 kts | 52° |
| 2026-05-04 08:35 | 5.11041 | 108.84856 | 31807 ft | 437 kts | 52° |
| 2026-05-04 08:35 | 5.14863 | 108.89584 | 31812 ft | 438 kts | 52° |
| 2026-05-04 08:37 | 5.28252 | 109.06152 | 31814 ft | 436 kts | 52° |
| 2026-05-04 08:38 | 5.32062 | 109.10870 | 31810 ft | 436 kts | 52° |
| 2026-05-04 08:38 | 5.35889 | 109.15609 | 31810 ft | 436 kts | 52° |
| 2026-05-04 08:40 | 5.51164 | 109.34534 | 31800 ft | 437 kts | 52° |
| 2026-05-04 08:41 | 5.54974 | 109.39258 | 31793 ft | 436 kts | 52° |
| 2026-05-04 08:41 | 5.58797 | 109.43999 | 31790 ft | 437 kts | 52° |
| 2026-05-04 08:42 | 5.62609 | 109.48727 | 31789 ft | 437 kts | 52° |
| 2026-05-04 08:42 | 5.66429 | 109.53465 | 31790 ft | 437 kts | 52° |
| 2026-05-04 08:43 | 5.70260 | 109.58219 | 31790 ft | 438 kts | 52° |
| 2026-05-04 08:43 | 5.74078 | 109.62957 | 31789 ft | 437 kts | 52° |
| 2026-05-04 08:44 | 5.77898 | 109.67700 | 31791 ft | 437 kts | 52° |
| 2026-05-04 08:46 | 5.93158 | 109.86657 | 31790 ft | 437 kts | 52° |
| 2026-05-04 08:46 | 5.96989 | 109.91417 | 31791 ft | 438 kts | 52° |
| 2026-05-04 08:47 | 6.00811 | 109.96168 | 31791 ft | 438 kts | 52° |
| 2026-05-04 08:47 | 6.04625 | 110.00913 | 31789 ft | 437 kts | 52° |
| 2026-05-04 08:48 | 6.08438 | 110.05656 | 31791 ft | 437 kts | 52° |
| 2026-05-04 08:48 | 6.12255 | 110.10404 | 31788 ft | 436 kts | 52° |
| 2026-05-04 08:49 | 6.16063 | 110.15145 | 31790 ft | 438 kts | 52° |
| 2026-05-04 08:50 | 6.29464 | 110.31829 | 31796 ft | 439 kts | 52° |
| 2026-05-04 08:51 | 6.33291 | 110.36599 | 31804 ft | 439 kts | 52° |
| 2026-05-04 08:51 | 6.37133 | 110.41389 | 31809 ft | 440 kts | 52° |
| 2026-05-04 08:52 | 6.40964 | 110.46165 | 31810 ft | 440 kts | 52° |
| 2026-05-04 08:52 | 6.44803 | 110.50950 | 31809 ft | 441 kts | 52° |
| 2026-05-04 08:54 | 6.60163 | 110.70117 | 31799 ft | 441 kts | 52° |
| 2026-05-04 08:55 | 6.64022 | 110.74936 | 31802 ft | 442 kts | 52° |
| 2026-05-04 08:55 | 6.67874 | 110.79747 | 31798 ft | 442 kts | 52° |
| 2026-05-04 09:01 | 7.08339 | 111.30373 | 31792 ft | 443 kts | 52° |
| 2026-05-04 09:01 | 7.12197 | 111.35210 | 31790 ft | 444 kts | 52° |
| 2026-05-04 09:02 | 7.16057 | 111.40051 | 31792 ft | 444 kts | 52° |
| 2026-05-04 09:02 | 7.19926 | 111.44905 | 31799 ft | 444 kts | 52° |
| 2026-05-04 09:03 | 7.23783 | 111.49750 | 31805 ft | 445 kts | 52° |
| 2026-05-04 09:03 | 7.27646 | 111.54599 | 31812 ft | 445 kts | 52° |
| 2026-05-04 09:04 | 7.31502 | 111.59455 | 31816 ft | 445 kts | 52° |
| 2026-05-04 09:04 | 7.35372 | 111.64343 | 31815 ft | 446 kts | 53° |
| 2026-05-04 09:05 | 7.39224 | 111.69214 | 31815 ft | 445 kts | 53° |
| 2026-05-04 09:05 | 7.43072 | 111.74085 | 31816 ft | 446 kts | 53° |
| 2026-05-04 09:06 | 7.46937 | 111.78978 | 31816 ft | 446 kts | 52° |
| 2026-05-04 09:08 | 7.62354 | 111.98512 | 31801 ft | 446 kts | 52° |
| 2026-05-04 09:08 | 7.66205 | 112.03395 | 31792 ft | 446 kts | 52° |
| 2026-05-04 09:09 | 7.70061 | 112.08286 | 31791 ft | 446 kts | 52° |
| 2026-05-04 09:09 | 7.73930 | 112.13195 | 31790 ft | 447 kts | 52° |
| 2026-05-04 09:10 | 7.77783 | 112.18085 | 31790 ft | 447 kts | 52° |
| 2026-05-04 09:10 | 7.81641 | 112.22986 | 31790 ft | 448 kts | 52° |
| 2026-05-04 09:11 | 7.85517 | 112.27909 | 31790 ft | 447 kts | 52° |
| 2026-05-04 09:11 | 7.89374 | 112.32811 | 31791 ft | 448 kts | 52° |
| 2026-05-04 09:12 | 7.93235 | 112.37717 | 31790 ft | 447 kts | 52° |
| 2026-05-04 09:14 | 8.08723 | 112.57418 | 31792 ft | 449 kts | 52° |
| 2026-05-04 09:14 | 8.12607 | 112.62363 | 31794 ft | 448 kts | 52° |
| 2026-05-04 09:15 | 8.16466 | 112.67280 | 31798 ft | 448 kts | 52° |
| 2026-05-04 09:15 | 8.20326 | 112.72198 | 31800 ft | 448 kts | 52° |
| 2026-05-04 09:17 | 8.37728 | 112.94389 | 31805 ft | 448 kts | 52° |
| 2026-05-04 09:18 | 8.41577 | 112.99303 | 31811 ft | 447 kts | 52° |
| 2026-05-04 09:18 | 8.45421 | 113.04212 | 31813 ft | 446 kts | 52° |
| 2026-05-04 09:19 | 8.49276 | 113.09136 | 31812 ft | 447 kts | 52° |
| 2026-05-04 09:19 | 8.53120 | 113.14046 | 31810 ft | 447 kts | 52° |
| 2026-05-04 09:20 | 8.56965 | 113.18961 | 31810 ft | 447 kts | 52° |
| 2026-05-04 09:20 | 8.60803 | 113.23871 | 31811 ft | 447 kts | 52° |
| 2026-05-04 09:21 | 8.64656 | 113.28801 | 31810 ft | 446 kts | 52° |
| 2026-05-04 09:21 | 8.68492 | 113.33710 | 31810 ft | 446 kts | 52° |
| 2026-05-04 09:22 | 8.72330 | 113.38624 | 31812 ft | 447 kts | 52° |
| 2026-05-04 09:22 | 8.76183 | 113.43558 | 31812 ft | 447 kts | 52° |
| 2026-05-04 09:23 | 8.80020 | 113.48473 | 31813 ft | 447 kts | 52° |
| 2026-05-04 09:23 | 8.83857 | 113.53390 | 31812 ft | 446 kts | 52° |
| 2026-05-04 09:25 | 8.99223 | 113.73105 | 31790 ft | 448 kts | 52° |
| 2026-05-04 09:26 | 9.03078 | 113.78056 | 31790 ft | 447 kts | 52° |
| 2026-05-04 09:26 | 9.06918 | 113.82988 | 31791 ft | 448 kts | 52° |
| 2026-05-04 09:27 | 9.10764 | 113.87931 | 31789 ft | 448 kts | 52° |
| 2026-05-04 09:27 | 9.14624 | 113.92892 | 31794 ft | 448 kts | 52° |
| 2026-05-04 09:28 | 9.18467 | 113.97837 | 31797 ft | 448 kts | 52° |
| 2026-05-04 09:28 | 9.22311 | 114.02782 | 31797 ft | 448 kts | 52° |
| 2026-05-04 09:29 | 9.26154 | 114.07729 | 31799 ft | 448 kts | 52° |
| 2026-05-04 09:29 | 9.30007 | 114.12689 | 31799 ft | 448 kts | 52° |
| 2026-05-04 09:30 | 9.33843 | 114.17633 | 31800 ft | 448 kts | 52° |
| 2026-05-04 09:30 | 9.37677 | 114.22573 | 31807 ft | 447 kts | 52° |
| 2026-05-04 09:31 | 9.41523 | 114.27530 | 31811 ft | 447 kts | 52° |
| 2026-05-04 09:31 | 9.45353 | 114.32473 | 31813 ft | 447 kts | 52° |
| 2026-05-04 09:32 | 9.49183 | 114.37417 | 31816 ft | 447 kts | 52° |
| 2026-05-04 09:34 | 9.64494 | 114.57188 | 31814 ft | 447 kts | 52° |
| 2026-05-04 09:34 | 9.68333 | 114.62160 | 31815 ft | 448 kts | 52° |
| 2026-05-04 09:35 | 9.72164 | 114.67120 | 31815 ft | 447 kts | 52° |
| 2026-05-04 09:35 | 9.75983 | 114.72067 | 31813 ft | 447 kts | 52° |
| 2026-05-04 09:37 | 9.91367 | 114.91905 | 31814 ft | 449 kts | 52° |
| 2026-05-04 09:38 | 9.95231 | 114.96887 | 31814 ft | 449 kts | 52° |
| 2026-05-04 09:38 | 9.99076 | 115.01850 | 31811 ft | 447 kts | 52° |
| 2026-05-04 09:39 | 10.02892 | 115.06777 | 31812 ft | 444 kts | 52° |
| 2026-05-04 09:39 | 10.06700 | 115.11698 | 31812 ft | 445 kts | 52° |
| 2026-05-04 09:40 | 10.10526 | 115.16638 | 31816 ft | 444 kts | 52° |
| 2026-05-04 09:40 | 10.14341 | 115.21562 | 31821 ft | 445 kts | 52° |
| 2026-05-04 09:42 | 10.29605 | 115.41311 | 31824 ft | 446 kts | 52° |
| 2026-05-04 09:43 | 10.33428 | 115.46257 | 31820 ft | 446 kts | 53° |
| 2026-05-04 09:43 | 10.37258 | 115.51222 | 31822 ft | 446 kts | 52° |
| 2026-05-04 09:44 | 10.41075 | 115.56172 | 31816 ft | 446 kts | 53° |
| 2026-05-04 09:46 | 10.56267 | 115.75888 | 31816 ft | 442 kts | 53° |
| 2026-05-04 09:46 | 10.60048 | 115.80800 | 31814 ft | 443 kts | 53° |
| 2026-05-04 09:47 | 10.63844 | 115.85735 | 31814 ft | 443 kts | 53° |
| 2026-05-04 09:49 | 10.78998 | 116.05452 | 31817 ft | 443 kts | 53° |
| 2026-05-04 09:51 | 10.92250 | 116.22729 | 31815 ft | 444 kts | 53° |
| 2026-05-04 09:51 | 10.96039 | 116.27676 | 31820 ft | 444 kts | 53° |
| 2026-05-04 09:52 | 10.99824 | 116.32617 | 31824 ft | 444 kts | 53° |
| 2026-05-04 09:52 | 11.03618 | 116.37575 | 31834 ft | 443 kts | 53° |
| 2026-05-04 09:53 | 11.07395 | 116.42516 | 31836 ft | 444 kts | 53° |
| 2026-05-04 09:53 | 11.11177 | 116.47464 | 31836 ft | 444 kts | 53° |
| 2026-05-04 09:54 | 11.14973 | 116.52434 | 31836 ft | 444 kts | 53° |
| 2026-05-04 09:54 | 11.18765 | 116.57386 | 31837 ft | 444 kts | 53° |
| 2026-05-04 09:55 | 11.22560 | 116.62340 | 31837 ft | 445 kts | 53° |
| 2026-05-04 09:55 | 11.26355 | 116.67303 | 31837 ft | 445 kts | 53° |
| 2026-05-04 09:56 | 11.30160 | 116.72286 | 31836 ft | 445 kts | 53° |
| 2026-05-04 09:56 | 11.33952 | 116.77255 | 31836 ft | 446 kts | 53° |
| 2026-05-04 09:57 | 11.37748 | 116.82232 | 31836 ft | 446 kts | 53° |
| 2026-05-04 09:57 | 11.41560 | 116.87234 | 31837 ft | 447 kts | 53° |
| 2026-05-04 09:58 | 11.45367 | 116.92230 | 31837 ft | 447 kts | 53° |
| 2026-05-04 09:58 | 11.49172 | 116.97226 | 31837 ft | 447 kts | 53° |
| 2026-05-04 10:00 | 11.64452 | 117.17316 | 31835 ft | 449 kts | 53° |
| 2026-05-04 10:04 | 11.91224 | 117.52615 | 31829 ft | 453 kts | 53° |
| 2026-05-04 10:04 | 11.95065 | 117.57689 | 31835 ft | 453 kts | 53° |
| 2026-05-04 10:05 | 11.98909 | 117.62769 | 31842 ft | 453 kts | 53° |
| 2026-05-04 10:05 | 12.02770 | 117.67877 | 31838 ft | 453 kts | 53° |
| 2026-05-04 10:06 | 12.06615 | 117.72964 | 31838 ft | 454 kts | 53° |
| 2026-05-04 10:06 | 12.10467 | 117.78064 | 31837 ft | 454 kts | 53° |
| 2026-05-04 10:08 | 12.23979 | 117.95976 | 31837 ft | 457 kts | 53° |
| 2026-05-04 10:08 | 12.27861 | 118.01130 | 31837 ft | 457 kts | 53° |
| 2026-05-04 10:09 | 12.31732 | 118.06269 | 31837 ft | 457 kts | 53° |
| 2026-05-04 10:09 | 12.35595 | 118.11400 | 31837 ft | 457 kts | 53° |
| 2026-05-04 10:10 | 12.39452 | 118.16527 | 31837 ft | 456 kts | 53° |
| 2026-05-04 10:10 | 12.43325 | 118.21680 | 31837 ft | 457 kts | 52° |
| 2026-05-04 10:11 | 12.47183 | 118.26815 | 31837 ft | 456 kts | 52° |
| 2026-05-04 10:11 | 12.51043 | 118.31954 | 31837 ft | 457 kts | 52° |
| 2026-05-04 10:12 | 12.54920 | 118.37117 | 31837 ft | 458 kts | 52° |
| 2026-05-04 10:12 | 12.58784 | 118.42269 | 31837 ft | 457 kts | 52° |
| 2026-05-04 10:13 | 12.62641 | 118.47414 | 31837 ft | 457 kts | 52° |
| 2026-05-04 10:13 | 12.66499 | 118.52563 | 31837 ft | 457 kts | 52° |
| 2026-05-04 10:14 | 12.70191 | 118.57495 | 31837 ft | 457 kts | 52° |
| 2026-05-04 10:16 | 12.85636 | 118.78151 | 31837 ft | 458 kts | 52° |
| 2026-05-04 10:16 | 12.89509 | 118.83338 | 31838 ft | 460 kts | 53° |
| 2026-05-04 10:17 | 12.93384 | 118.88532 | 31837 ft | 460 kts | 53° |
| 2026-05-04 10:19 | 13.08935 | 119.09226 | 31838 ft | 458 kts | 52° |
| 2026-05-04 10:19 | 13.12849 | 119.14377 | 31838 ft | 459 kts | 52° |
| 2026-05-04 10:20 | 13.16761 | 119.19536 | 31838 ft | 460 kts | 52° |
| 2026-05-04 10:20 | 13.20677 | 119.24706 | 31843 ft | 460 kts | 52° |
| 2026-05-04 10:21 | 13.24603 | 119.29895 | 31850 ft | 460 kts | 52° |
| 2026-05-04 10:21 | 13.28514 | 119.35063 | 31855 ft | 458 kts | 52° |
| 2026-05-04 10:22 | 13.34335 | 119.42767 | 31858 ft | 455 kts | 52° |
| 2026-05-04 10:23 | 13.38213 | 119.47902 | 31860 ft | 454 kts | 51° |
| 2026-05-04 10:25 | 13.54006 | 119.68840 | 31856 ft | 469 kts | 51° |
| 2026-05-04 10:25 | 13.57983 | 119.74123 | 31854 ft | 469 kts | 51° |
| 2026-05-04 10:26 | 13.61955 | 119.79400 | 31852 ft | 468 kts | 51° |
| 2026-05-04 10:26 | 13.65934 | 119.84693 | 31851 ft | 467 kts | 51° |
| 2026-05-04 10:27 | 13.69901 | 119.89975 | 31851 ft | 467 kts | 51° |
| 2026-05-04 10:27 | 13.73869 | 119.95258 | 31855 ft | 467 kts | 51° |
| 2026-05-04 10:28 | 13.77851 | 120.00566 | 31855 ft | 469 kts | 51° |
| 2026-05-04 10:28 | 13.81826 | 120.05873 | 31858 ft | 470 kts | 51° |
| 2026-05-04 10:29 | 13.85813 | 120.11194 | 31857 ft | 471 kts | 51° |
| 2026-05-04 10:29 | 13.89783 | 120.16532 | 31855 ft | 471 kts | 51° |
| 2026-05-04 10:30 | 13.93764 | 120.21890 | 31857 ft | 470 kts | 51° |
| 2026-05-04 10:30 | 13.97728 | 120.27223 | 31849 ft | 470 kts | 51° |
| 2026-05-04 10:31 | 14.01708 | 120.32571 | 31847 ft | 470 kts | 51° |
| 2026-05-04 10:32 | 14.15639 | 120.51302 | 31847 ft | 473 kts | 51° |
| 2026-05-04 10:33 | 14.19622 | 120.56628 | 31702 ft | 460 kts | 51° |
| 2026-05-04 10:33 | 14.21636 | 120.59115 | 31405 ft | 448 kts | 44° |
| 2026-05-04 10:33 | 14.24007 | 120.61113 | 30612 ft | 439 kts | 32° |
| 2026-05-04 10:34 | 14.26713 | 120.62534 | 29175 ft | 445 kts | 19° |
| 2026-05-04 10:34 | 14.29713 | 120.63308 | 27541 ft | 454 kts | 6° |
| 2026-05-04 10:34 | 14.32874 | 120.63335 | 26135 ft | 454 kts | 353° |
| 2026-05-04 10:34 | 14.35897 | 120.62591 | 25187 ft | 443 kts | 339° |
| 2026-05-04 10:35 | 14.38599 | 120.61185 | 24252 ft | 433 kts | 326° |
| 2026-05-04 10:35 | 14.40790 | 120.59266 | 23265 ft | 427 kts | 313° |
| 2026-05-04 10:35 | 14.42689 | 120.56962 | 22258 ft | 422 kts | 308° |
| 2026-05-04 10:35 | 14.44302 | 120.54496 | 21233 ft | 417 kts | 296° |
| 2026-05-04 10:36 | 14.45223 | 120.51689 | 20248 ft | 412 kts | 279° |
| 2026-05-04 10:36 | 14.45332 | 120.48800 | 19302 ft | 405 kts | 263° |
| 2026-05-04 10:36 | 14.44649 | 120.46036 | 18352 ft | 398 kts | 249° |
| 2026-05-04 10:36 | 14.43655 | 120.43409 | 17400 ft | 394 kts | 248° |
| 2026-05-04 10:37 | 14.42638 | 120.40827 | 16437 ft | 390 kts | 247° |
| 2026-05-04 10:37 | 14.41620 | 120.38279 | 15502 ft | 385 kts | 247° |
| 2026-05-04 10:37 | 14.40605 | 120.35761 | 14567 ft | 381 kts | 247° |
| 2026-05-04 10:37 | 14.39592 | 120.33260 | 13642 ft | 376 kts | 247° |
| 2026-05-04 10:39 | 14.38950 | 120.19872 | 9901 ft | 294 kts | 332° |
| 2026-05-04 10:39 | 14.40812 | 120.19132 | 9378 ft | 280 kts | 357° |
| 2026-05-04 10:39 | 14.42724 | 120.19307 | 9239 ft | 276 kts | 21° |
| 2026-05-04 10:40 | 14.44360 | 120.20280 | 9118 ft | 272 kts | 45° |
| 2026-05-04 10:40 | 14.45446 | 120.21855 | 9007 ft | 271 kts | 68° |
| 2026-05-04 10:40 | 14.45995 | 120.23707 | 8963 ft | 271 kts | 73° |
| 2026-05-04 10:40 | 14.46496 | 120.25573 | 8951 ft | 270 kts | 73° |
| 2026-05-04 10:41 | 14.47000 | 120.27435 | 8929 ft | 270 kts | 73° |
| 2026-05-04 10:41 | 14.47510 | 120.29309 | 8916 ft | 270 kts | 73° |
| 2026-05-04 10:41 | 14.48017 | 120.31171 | 8900 ft | 270 kts | 73° |
| 2026-05-04 10:41 | 14.48524 | 120.33029 | 8900 ft | 270 kts | 73° |
| 2026-05-04 10:42 | 14.49031 | 120.34887 | 8904 ft | 269 kts | 73° |
| 2026-05-04 10:42 | 14.49537 | 120.36741 | 8909 ft | 270 kts | 73° |
| 2026-05-04 10:42 | 14.50045 | 120.38597 | 8917 ft | 270 kts | 73° |
| 2026-05-04 10:42 | 14.50497 | 120.40467 | 8917 ft | 271 kts | 83° |
| 2026-05-04 10:43 | 14.50169 | 120.42378 | 8919 ft | 276 kts | 115° |
| 2026-05-04 10:44 | 14.42550 | 120.53968 | 8202 ft | 281 kts | 120° |
| 2026-05-04 10:45 | 14.41485 | 120.55646 | 7924 ft | 280 kts | 120° |
| 2026-05-04 10:45 | 14.40424 | 120.57316 | 7606 ft | 278 kts | 120° |
| 2026-05-04 10:45 | 14.39372 | 120.58978 | 7268 ft | 277 kts | 120° |
| 2026-05-04 10:45 | 14.38324 | 120.60632 | 6915 ft | 275 kts | 120° |
| 2026-05-04 10:46 | 14.37281 | 120.62274 | 6564 ft | 274 kts | 120° |
| 2026-05-04 10:46 | 14.36247 | 120.63905 | 6213 ft | 272 kts | 120° |
| 2026-05-04 10:46 | 14.35210 | 120.65539 | 5861 ft | 270 kts | 121° |
| 2026-05-04 10:46 | 14.34186 | 120.67151 | 5524 ft | 268 kts | 120° |
| 2026-05-04 10:47 | 14.33481 | 120.68888 | 5138 ft | 263 kts | 94° |
| 2026-05-04 10:47 | 14.33656 | 120.70726 | 4799 ft | 259 kts | 72° |
| 2026-05-04 10:47 | 14.34368 | 120.72411 | 4487 ft | 256 kts | 62° |
| 2026-05-04 10:47 | 14.35263 | 120.73978 | 4191 ft | 253 kts | 59° |
| 2026-05-04 10:49 | 14.41267 | 120.84635 | 3127 ft | 217 kts | 61° |
| 2026-05-04 10:49 | 14.42002 | 120.85967 | 2916 ft | 212 kts | 62° |
| 2026-05-04 10:50 | 14.42731 | 120.87287 | 2649 ft | 210 kts | 61° |
| 2026-05-04 10:51 | 14.46905 | 120.94826 | 1116 ft | 143 kts | 61° |
| 2026-05-04 10:52 | 14.47400 | 120.95713 | 942 ft | 144 kts | 64° |
| 2026-05-04 10:52 | 14.47906 | 120.96602 | 788 ft | 146 kts | 62° |
| 2026-05-04 10:52 | 14.48421 | 120.97510 | 618 ft | 147 kts | 67° |
| 2026-05-04 10:54 | 14.50964 | 121.01995 | 38 ft | 8 kts | 316° |
| 2026-05-04 10:54 | 14.51000 | 121.01958 | 38 ft | 6 kts | 315° |